Time;durP1;ratioP1;P1;durP2;ratioP2;P2;SDS_P1;SDS_P2;PMS_P1;PMS_P2;Temp;Humidity;BMP_temperature;BMP_pressure;BME280_temperature;BME280_humidity;BME280_pressure;Samples;Min_cycle;Max_cycle;Signal;HPM_P1;HPM_P2
2023/05/25 06:29:10;;;;;;;13.45;6.03;;;;;;;13.00;92.83;102722.84;5851771;23;20070;-93
2023/05/25 06:31:35;;;;;;;13.98;6.10;;;;;;;12.94;89.54;102732.44;4902099;29;20044;-93
2023/05/25 06:34:07;;;;;;;13.52;6.13;;;;;;;12.94;93.26;102729.81;4885616;29;20052;-93
2023/05/25 06:36:32;;;;;;;17.38;6.55;;;;;;;12.98;90.99;102739.34;4888427;29;20052;-89
2023/05/25 06:38:57;;;;;;;13.15;6.25;;;;;;;12.93;89.95;102743.69;4893736;29;20041;-91
2023/05/25 06:41:23;;;;;;;15.32;6.55;;;;;;;12.88;92.72;102737.66;4890630;29;20214;-90
2023/05/25 06:43:50;;;;;;;18.52;7.05;;;;;;;12.98;91.72;102737.59;4889022;29;20096;-89
2023/05/25 06:46:21;;;;;;;15.38;6.88;;;;;;;13.17;95.94;102741.03;4885659;29;20134;-90
2023/05/25 06:48:52;;;;;;;12.82;5.90;;;;;;;13.26;88.70;102751.44;4892072;29;20036;-90
2023/05/25 06:51:17;;;;;;;14.38;6.40;;;;;;;13.16;89.15;102749.75;4884002;29;20413;-91
2023/05/25 06:53:46;;;;;;;17.88;6.50;;;;;;;13.29;91.63;102748.81;4886095;29;20493;-91
2023/05/25 06:56:12;;;;;;;17.42;6.82;;;;;;;13.42;94.00;102742.69;4887302;29;20052;-90
2023/05/25 06:58:37;;;;;;;13.88;6.15;;;;;;;13.60;93.29;102744.31;4889573;29;20409;-91
2023/05/25 07:01:03;;;;;;;12.40;5.70;;;;;;;13.84;84.54;102746.78;4885433;29;20048;-89
2023/05/25 07:03:31;;;;;;;13.63;5.85;;;;;;;14.48;88.31;102748.88;4889184;29;20135;-90
2023/05/25 07:06:00;;;;;;;14.95;6.10;;;;;;;15.40;82.43;102748.72;4893382;29;20040;-90
2023/05/25 07:08:30;;;;;;;13.93;6.00;;;;;;;16.10;83.21;102748.56;4886623;29;20111;-90
2023/05/25 07:10:56;;;;;;;12.52;5.68;;;;;;;16.10;80.62;102755.59;4886796;29;21040;-92
2023/05/25 07:13:21;;;;;;;12.98;5.72;;;;;;;15.97;75.12;102740.94;4891661;29;20056;-91
2023/05/25 07:15:47;;;;;;;12.98;5.47;;;;;;;15.84;79.72;102753.34;4890589;29;20033;-91
2023/05/25 07:18:21;;;;;;;14.77;5.50;;;;;;;15.64;75.21;102758.00;4893942;29;20285;-92
2023/05/25 07:20:47;;;;;;;13.27;5.15;;;;;;;15.64;74.81;102764.09;4893780;29;20044;-90
2023/05/25 07:23:13;;;;;;;11.70;4.95;;;;;;;15.48;77.15;102744.25;4890747;29;20036;-92
2023/05/25 07:25:39;;;;;;;14.85;5.35;;;;;;;15.58;79.97;102747.63;4889726;29;20063;-91
2023/05/25 07:28:08;;;;;;;12.25;5.50;;;;;;;15.79;78.86;102745.56;4890017;29;20040;-91
2023/05/25 07:30:34;;;;;;;12.77;5.68;;;;;;;15.92;76.12;102754.09;4894144;29;20458;-91
2023/05/25 07:32:59;;;;;;;13.13;5.22;;;;;;;15.96;71.91;102763.66;4901172;29;20519;-91
2023/05/25 07:35:25;;;;;;;14.73;5.80;;;;;;;15.92;74.26;102748.00;4901796;29;20574;-90
2023/05/25 07:38:03;;;;;;;12.30;5.82;;;;;;;16.54;75.61;102771.38;4901320;29;20047;-90
2023/05/25 07:40:29;;;;;;;13.18;5.28;;;;;;;17.18;68.27;102754.47;4899858;29;20044;-91
2023/05/25 07:42:55;;;;;;;15.10;5.70;;;;;;;17.94;66.70;102760.69;4900548;29;20100;-91
2023/05/25 07:45:21;;;;;;;12.30;5.15;;;;;;;18.68;64.59;102750.06;4900924;29;20041;-91
2023/05/25 07:47:46;;;;;;;14.27;5.10;;;;;;;19.57;62.77;102756.28;4902391;29;20048;-91
2023/05/25 07:50:15;;;;;;;11.60;4.90;;;;;;;19.82;59.17;102761.66;4900370;29;20096;-91
2023/05/25 07:52:43;;;;;;;9.65;4.53;;;;;;;19.83;56.62;102756.34;4903579;29;20058;-91
2023/05/25 07:55:09;;;;;;;12.30;4.88;;;;;;;19.22;60.34;102765.19;4901811;29;20033;-92
2023/05/25 07:57:38;;;;;;;10.90;5.28;;;;;;;18.77;60.83;102765.56;4900135;29;20044;-90
2023/05/25 08:00:08;;;;;;;10.57;4.63;;;;;;;18.56;62.74;102767.94;4901204;29;20368;-91
2023/05/25 08:02:36;;;;;;;11.02;4.85;;;;;;;18.07;61.25;102770.00;4901874;29;20060;-91
2023/05/25 08:05:05;;;;;;;10.23;4.68;;;;;;;17.71;63.96;102766.47;4902714;29;20036;-90
2023/05/25 08:07:33;;;;;;;16.80;5.72;;;;;;;17.47;62.56;102777.44;4899539;29;20036;-92
2023/05/25 08:09:59;;;;;;;14.82;5.75;;;;;;;17.40;66.56;102762.72;4904366;29;20151;-91
2023/05/25 08:12:24;;;;;;;15.48;5.65;;;;;;;17.51;63.90;102768.63;4906583;29;20089;-92
2023/05/25 08:14:50;;;;;;;13.02;5.32;;;;;;;17.77;64.07;102774.19;4905732;29;20143;-92
2023/05/25 08:17:16;;;;;;;12.70;5.20;;;;;;;18.05;63.00;102782.28;4903843;29;20502;-91
2023/05/25 08:19:41;;;;;;;12.77;5.30;;;;;;;17.73;60.45;102784.78;4905291;29;20167;-91
2023/05/25 08:22:07;;;;;;;13.40;4.72;;;;;;;17.27;64.65;102775.25;4902235;29;20068;-90
2023/05/25 08:24:33;;;;;;;16.13;5.28;;;;;;;17.49;70.49;102782.66;4898118;29;20474;-91
2023/05/25 08:27:00;;;;;;;12.45;4.95;;;;;;;17.54;62.88;102780.78;4904709;29;20584;-91
2023/05/25 08:29:26;;;;;;;14.00;5.03;;;;;;;17.45;61.14;102775.75;4905740;29;20051;-91
2023/05/25 08:31:51;;;;;;;11.98;4.95;;;;;;;17.43;62.74;102785.41;4914265;29;20036;-92
2023/05/25 08:34:19;;;;;;;13.40;4.80;;;;;;;17.32;66.12;102785.66;4899054;29;20067;-93
2023/05/25 08:36:44;;;;;;;11.30;4.63;;;;;;;17.22;67.39;102792.81;4901505;29;20036;-91
2023/05/25 08:39:10;;;;;;;13.25;4.40;;;;;;;17.14;65.03;102784.25;4913903;29;20036;-91
2023/05/25 08:41:41;;;;;;;11.07;4.60;;;;;;;16.91;66.35;102783.84;4902820;29;20035;-90
2023/05/25 08:44:07;;;;;;;14.05;4.75;;;;;;;16.74;68.39;102785.91;4913557;29;20036;-91
2023/05/25 08:46:33;;;;;;;13.65;5.03;;;;;;;16.77;63.91;102785.84;4902120;29;20396;-91
2023/05/25 08:49:11;;;;;;;10.68;4.50;;;;;;;16.95;65.23;102791.59;4903009;29;20040;-92
2023/05/25 08:51:54;;;;;;;12.77;4.50;;;;;;;17.07;65.09;102790.50;4902859;29;20044;-91
2023/05/25 08:54:27;;;;;;;7.93;4.03;;;;;;;16.77;65.93;102796.34;4903831;29;20047;-91
2023/05/25 08:57:09;;;;;;;8.85;4.03;;;;;;;16.49;66.71;102791.56;4902015;29;20036;-91
2023/05/25 09:00:03;;;;;;;12.27;4.35;;;;;;;16.29;66.51;102798.88;4914282;29;20143;-90
2023/05/25 09:02:35;;;;;;;12.75;4.70;;;;;;;16.17;68.21;102799.06;4905502;29;20040;-90
2023/05/25 09:05:04;;;;;;;12.70;4.30;;;;;;;16.15;70.06;102799.09;4914666;29;20100;-90
2023/05/25 09:07:30;;;;;;;12.80;4.38;;;;;;;16.34;66.54;102798.78;4912650;29;20043;-91
2023/05/25 09:09:57;;;;;;;10.18;3.97;;;;;;;16.33;65.65;102795.31;4905155;29;20130;-92
2023/05/25 09:12:27;;;;;;;10.60;4.20;;;;;;;16.59;66.91;102798.34;4914126;29;20050;-92
2023/05/25 09:14:52;;;;;;;11.65;4.78;;;;;;;16.62;67.08;102804.47;4914231;29;20055;-93
2023/05/25 09:17:18;;;;;;;11.63;4.43;;;;;;;16.47;65.68;102814.25;4903452;29;20032;-91
2023/05/25 09:19:46;;;;;;;13.05;4.70;;;;;;;16.08;67.72;102810.53;4901756;29;20036;-91
2023/05/25 09:22:17;;;;;;;9.93;4.10;;;;;;;15.76;65.77;102808.38;4918871;29;20127;-92
2023/05/25 09:24:46;;;;;;;9.77;3.65;;;;;;;15.60;65.38;102816.44;4903610;29;20051;-92
2023/05/25 09:27:19;;;;;;;10.75;4.03;;;;;;;15.41;65.45;102821.03;4902106;29;20036;-92
2023/05/25 09:29:50;;;;;;;7.82;3.60;;;;;;;15.30;68.73;102815.03;4912332;29;20055;-92
2023/05/25 09:32:17;;;;;;;8.30;3.50;;;;;;;15.36;66.04;102820.19;4912625;29;20047;-91
2023/05/25 09:34:43;;;;;;;11.27;3.83;;;;;;;15.41;66.97;102813.19;4912676;29;20044;-92
2023/05/25 09:37:15;;;;;;;9.48;3.75;;;;;;;15.46;65.79;102803.53;4902011;29;20048;-91
2023/05/25 09:39:43;;;;;;;10.73;3.55;;;;;;;15.58;67.29;102813.84;4912974;29;20496;-91
2023/05/25 09:42:12;;;;;;;10.60;3.60;;;;;;;15.57;65.70;102792.94;4900274;29;20028;-91
2023/05/25 09:44:46;;;;;;;12.90;3.60;;;;;;;15.58;66.70;102805.13;4906706;29;20040;-92
2023/05/25 09:47:14;;;;;;;8.70;3.47;;;;;;;15.68;66.02;102807.63;4903085;29;20579;-91
2023/05/25 09:49:43;;;;;;;10.02;3.70;;;;;;;15.76;65.45;102810.16;4903254;29;20040;-91
2023/05/25 09:52:10;;;;;;;10.90;4.35;;;;;;;15.74;67.78;102804.94;4912185;29;20037;-90
2023/05/25 09:54:38;;;;;;;12.38;4.07;;;;;;;15.77;66.67;102814.47;4902733;29;20035;-92
2023/05/25 09:57:05;;;;;;;10.95;3.88;;;;;;;15.82;68.40;102806.56;4902873;29;20682;-91
2023/05/25 09:59:30;;;;;;;12.65;3.90;;;;;;;15.85;67.61;102806.50;4903515;29;20090;-91
2023/05/25 10:01:57;;;;;;;12.20;3.58;;;;;;;15.87;67.66;102826.53;4900414;29;20036;-90
2023/05/25 10:04:26;;;;;;;10.27;3.90;;;;;;;15.80;67.82;102815.31;4903323;29;20074;-93
2023/05/25 10:06:52;;;;;;;12.00;3.88;;;;;;;15.82;67.36;102817.03;4913497;29;20088;-92
2023/05/25 10:09:19;;;;;;;8.80;3.75;;;;;;;15.89;67.61;102816.06;4907126;29;20099;-91
2023/05/25 10:11:45;;;;;;;12.57;3.90;;;;;;;15.95;68.25;102816.84;4911648;29;20083;-92
2023/05/25 10:14:16;;;;;;;11.10;4.03;;;;;;;16.03;66.76;102820.22;4904695;29;20457;-91
2023/05/25 10:16:48;;;;;;;9.43;4.28;;;;;;;16.09;65.52;102814.03;4901937;29;20040;-91
2023/05/25 10:19:41;;;;;;;12.30;3.95;;;;;;;16.20;66.67;102826.03;4903082;29;20051;-91
2023/05/25 10:22:43;;;;;;;9.52;3.95;;;;;;;16.21;64.02;102813.81;4901210;29;20501;-92
2023/05/25 10:25:30;;;;;;;10.05;3.45;;;;;;;15.98;63.85;102822.00;4884638;29;20050;-93
2023/05/25 10:28:03;;;;;;;9.85;3.85;;;;;;;15.86;64.20;102821.31;4903206;29;20036;-92
2023/05/25 10:30:30;;;;;;;9.30;4.18;;;;;;;15.82;67.01;102819.66;4911380;29;20072;-91
2023/05/25 10:32:55;;;;;;;11.63;3.67;;;;;;;15.84;65.94;102825.69;4897139;29;20036;-91
2023/05/25 10:35:22;;;;;;;9.05;4.00;;;;;;;15.86;67.64;102821.31;4910870;29;20039;-90
2023/05/25 10:37:51;;;;;;;10.57;3.83;;;;;;;16.10;66.95;102821.81;4911878;29;20044;-91
2023/05/25 10:40:18;;;;;;;9.80;3.70;;;;;;;16.57;66.29;102818.47;4902007;29;20047;-91
2023/05/25 10:42:46;;;;;;;10.02;3.78;;;;;;;17.01;61.81;102819.44;4898660;29;20063;-93
2023/05/25 10:45:12;;;;;;;7.72;3.42;;;;;;;17.18;60.98;102820.00;4910916;29;20046;-92
2023/05/25 10:47:41;;;;;;;10.75;4.30;;;;;;;17.09;61.45;102821.94;4911582;29;20718;-91
2023/05/25 10:50:23;;;;;;;10.57;4.18;;;;;;;16.98;63.51;102822.13;4901076;29;20111;-91
2023/05/25 10:53:16;;;;;;;9.30;4.05;;;;;;;16.98;64.53;102822.13;4900351;29;20055;-92
2023/05/25 10:55:43;;;;;;;11.63;4.50;;;;;;;16.90;62.95;102819.66;4902430;29;20062;-92
2023/05/25 10:58:13;;;;;;;10.20;4.25;;;;;;;16.89;65.14;102822.31;4912726;29;20036;-92
2023/05/25 11:00:39;;;;;;;10.45;4.78;;;;;;;16.93;63.59;102819.59;4898263;29;20036;-91
2023/05/25 11:03:05;;;;;;;11.95;4.38;;;;;;;16.96;64.64;102816.91;4910575;29;20453;-91
2023/05/25 11:05:37;;;;;;;10.60;4.38;;;;;;;17.07;63.60;102819.31;4911662;29;20063;-92
2023/05/25 11:08:13;;;;;;;11.25;4.75;;;;;;;16.95;62.14;102807.34;4905421;29;20043;-92
2023/05/25 11:10:52;;;;;;;10.98;4.85;;;;;;;16.87;62.50;102818.84;4912312;29;20028;-92
2023/05/25 11:13:42;;;;;;;12.85;4.70;;;;;;;17.03;64.74;102816.81;4901803;29;20040;-91
2023/05/25 11:16:26;;;;;;;11.55;4.80;;;;;;;17.53;62.20;102806.19;4902656;29;20674;-92
2023/05/25 11:18:58;;;;;;;12.40;4.95;;;;;;;17.67;62.48;102803.28;4912767;29;20048;-92
2023/05/25 11:21:29;;;;;;;10.10;5.22;;;;;;;17.73;59.75;102809.25;4899229;29;20393;-92
2023/05/25 11:23:57;;;;;;;13.07;4.80;;;;;;;17.75;61.75;102804.81;4912508;29;20047;-92
2023/05/25 11:26:31;;;;;;;14.68;5.03;;;;;;;17.65;58.33;102805.94;4902591;29;20036;-91
2023/05/25 11:29:03;;;;;;;;;;;;;;;17.71;60.94;102810.19;4912335;29;20051;-92
2023/05/25 11:31:35;;;;;;;13.32;4.80;;;;;;;17.61;60.91;102804.25;4916744;29;19933;-92
2023/05/25 11:34:05;;;;;;;10.20;5.03;;;;;;;17.64;61.84;102803.34;4903422;29;20102;-91
2023/05/25 11:36:33;;;;;;;18.05;5.70;;;;;;;17.72;59.67;102788.31;4902183;29;20173;-92
2023/05/25 11:39:06;;;;;;;15.32;5.55;;;;;;;17.72;59.52;102785.69;4912702;29;20080;-92
2023/05/25 11:41:33;;;;;;;11.75;5.28;;;;;;;17.72;59.81;102785.69;4889876;29;20151;-92
2023/05/25 11:44:07;;;;;;;11.10;5.00;;;;;;;17.73;61.69;102790.03;4914494;29;20099;-92
2023/05/25 11:46:37;;;;;;;13.55;5.15;;;;;;;18.01;62.21;102793.75;4916697;29;20044;-93
2023/05/25 11:49:03;;;;;;;10.55;5.32;;;;;;;18.15;58.93;102781.13;4906047;29;20035;-91
2023/05/25 11:51:30;;;;;;;12.15;5.65;;;;;;;18.25;55.19;102775.69;4905684;29;20028;-92
2023/05/25 11:53:55;;;;;;;12.40;5.57;;;;;;;18.20;57.56;102774.94;4906825;29;20086;-92
2023/05/25 11:56:21;;;;;;;12.02;5.70;;;;;;;18.06;57.04;102784.00;4906262;29;20039;-93
2023/05/25 11:58:53;;;;;;;13.32;5.10;;;;;;;17.92;59.78;102772.97;4917311;29;20058;-92
2023/05/25 12:01:25;;;;;;;12.82;5.10;;;;;;;17.74;60.72;102768.16;4904673;29;20039;-92
2023/05/25 12:03:54;;;;;;;11.38;5.13;;;;;;;17.56;59.57;102766.75;4915888;29;20063;-92
2023/05/25 12:06:30;;;;;;;11.57;5.13;;;;;;;17.54;61.80;102767.69;4916823;29;20423;-92
2023/05/25 12:08:56;;;;;;;12.55;5.95;;;;;;;17.56;60.33;102773.75;4916444;29;20032;-92
2023/05/25 12:11:29;;;;;;;11.68;5.70;;;;;;;17.73;63.57;102761.19;4915923;29;20048;-92
2023/05/25 12:13:55;;;;;;;12.00;5.53;;;;;;;17.89;59.80;102759.91;4906157;29;20050;-93
2023/05/25 12:16:21;;;;;;;12.43;5.13;;;;;;;17.94;58.93;102762.44;4905228;29;20036;-92
2023/05/25 12:18:47;;;;;;;12.38;5.20;;;;;;;17.88;59.70;102770.47;4905204;29;20075;-92
2023/05/25 12:21:12;;;;;;;11.70;5.38;;;;;;;17.68;59.78;102757.78;4915563;29;20079;-92
2023/05/25 12:23:49;;;;;;;11.90;5.35;;;;;;;17.68;60.96;102765.66;4904686;29;20074;-92
2023/05/25 12:26:16;;;;;;;14.18;5.60;;;;;;;17.53;58.65;102755.50;4916170;29;20067;-92
2023/05/25 12:29:07;;;;;;;15.98;5.57;;;;;;;17.64;60.92;102758.75;4916916;29;20068;-92
2023/05/25 12:31:35;;;;;;;10.90;5.70;;;;;;;17.80;60.45;102744.41;4909843;29;20051;-92
2023/05/25 12:34:14;;;;;;;13.85;5.30;;;;;;;18.28;60.09;102752.00;4905618;29;20042;-92
2023/05/25 12:36:51;;;;;;;9.75;5.10;;;;;;;18.44;59.33;102740.16;4904614;29;20032;-92
2023/05/25 12:39:38;;;;;;;11.13;5.20;;;;;;;18.45;58.09;102752.41;4908228;29;20587;-92
2023/05/25 12:42:11;;;;;;;10.38;5.00;;;;;;;18.27;56.92;102750.25;4916316;29;20047;-93
2023/05/25 12:44:36;;;;;;;11.32;5.22;;;;;;;18.13;56.07;102753.22;4905679;29;20035;-92
2023/05/25 12:47:10;;;;;;;10.68;4.95;;;;;;;18.07;60.68;102756.88;4906972;29;20050;-92
2023/05/25 12:49:36;;;;;;;10.20;5.05;;;;;;;17.97;56.52;102750.09;4916164;29;20088;-92
2023/05/25 12:52:10;;;;;;;10.02;5.25;;;;;;;17.91;59.40;102759.88;4905030;29;20225;-93
2023/05/25 12:54:44;;;;;;;9.27;4.72;;;;;;;17.93;59.27;102758.09;4908281;29;20517;-92
2023/05/25 12:57:14;;;;;;;13.35;5.00;;;;;;;17.89;56.29;102753.78;4904468;29;20036;-92
2023/05/25 12:59:46;;;;;;;11.32;5.10;;;;;;;17.90;56.76;102756.41;4906267;29;20043;-92
2023/05/25 13:02:13;;;;;;;11.32;4.88;;;;;;;17.83;57.32;102757.44;4903799;29;20493;-93
2023/05/25 13:04:43;;;;;;;8.05;4.70;;;;;;;17.67;59.55;102749.03;4905037;29;21416;-94
2023/05/25 13:07:09;;;;;;;10.38;4.95;;;;;;;17.61;59.05;102749.19;4904349;29;20043;-93
2023/05/25 13:09:34;;;;;;;8.88;5.13;;;;;;;17.50;58.10;102745.91;4907152;29;20040;-93
2023/05/25 13:12:01;;;;;;;8.68;4.72;;;;;;;17.45;58.07;102746.91;4904287;29;20048;-92
2023/05/25 13:14:28;;;;;;;7.97;4.72;;;;;;;17.41;58.48;102745.25;4904995;29;20047;-93
2023/05/25 13:16:54;;;;;;;9.70;4.70;;;;;;;17.44;60.88;102732.94;4904488;29;20099;-93
2023/05/25 13:19:23;;;;;;;10.18;4.82;;;;;;;17.52;61.25;102738.88;4914275;29;20038;-93
2023/05/25 13:21:54;;;;;;;9.32;4.93;;;;;;;17.68;58.13;102734.16;4907487;29;20123;-91
2023/05/25 13:24:23;;;;;;;12.32;4.88;;;;;;;17.78;56.84;102735.69;4903835;29;20044;-92
2023/05/25 13:26:49;;;;;;;7.50;4.60;;;;;;;17.79;59.97;102732.19;4904561;29;20638;-93
2023/05/25 13:29:14;;;;;;;11.52;4.65;;;;;;;17.86;59.01;102735.53;4902664;29;20991;-92
2023/05/25 13:31:43;;;;;;;7.93;4.47;;;;;;;17.88;58.52;102726.69;4903610;29;20058;-93
2023/05/25 13:34:11;;;;;;;10.38;4.53;;;;;;;17.84;55.93;102730.31;4914343;29;20122;-92
2023/05/25 13:36:37;;;;;;;9.07;4.72;;;;;;;17.73;55.83;102724.47;4904719;29;20053;-92
2023/05/25 13:39:12;;;;;;;10.45;4.90;;;;;;;17.70;56.27;102722.75;4907248;29;20032;-92
2023/05/25 13:41:37;;;;;;;13.07;4.47;;;;;;;17.87;54.98;102727.63;4901809;29;20036;-91
2023/05/25 13:44:05;;;;;;;9.13;4.65;;;;;;;17.97;54.81;102721.22;4904771;29;20032;-93
2023/05/25 13:46:31;;;;;;;6.82;4.15;;;;;;;18.01;54.42;102727.28;4918640;29;20107;-92
2023/05/25 13:48:59;;;;;;;10.88;4.90;;;;;;;18.15;54.90;102725.19;4903691;29;20040;-92
2023/05/25 13:51:25;;;;;;;11.05;4.47;;;;;;;18.32;54.21;102716.88;4905879;29;20126;-92
2023/05/25 13:53:52;;;;;;;10.48;4.18;;;;;;;18.56;56.15;102712.78;4915237;29;20194;-92
2023/05/25 13:56:17;;;;;;;10.48;4.95;;;;;;;18.69;53.07;102722.03;4915334;29;20554;-92
2023/05/25 13:58:43;;;;;;;11.02;4.65;;;;;;;18.55;55.80;102732.88;4904173;29;20128;-92
2023/05/25 14:01:11;;;;;;;12.48;5.90;;;;;;;18.40;54.26;102726.28;4904604;29;20036;-92
2023/05/25 14:03:37;;;;;;;11.43;5.63;;;;;;;18.16;53.77;102722.50;4914256;29;20044;-92
2023/05/25 14:06:03;;;;;;;8.00;4.60;;;;;;;17.92;55.69;102717.88;4905880;29;20030;-92
2023/05/25 14:08:29;;;;;;;11.57;5.00;;;;;;;17.84;54.94;102719.81;4911473;29;20044;-91
2023/05/25 14:10:58;;;;;;;10.35;5.15;;;;;;;17.86;55.10;102718.03;4913463;29;20029;-94
2023/05/25 14:13:23;;;;;;;10.85;5.15;;;;;;;18.09;57.26;102707.81;4924083;29;20036;-92
2023/05/25 14:15:49;;;;;;;11.85;5.55;;;;;;;18.39;54.31;102694.78;4915861;29;20040;-92
2023/05/25 14:18:15;;;;;;;10.68;5.05;;;;;;;18.56;54.21;102710.97;4910118;29;20040;-93
2023/05/25 14:20:43;;;;;;;11.30;4.90;;;;;;;18.58;53.79;102700.44;4915122;29;20032;-93
2023/05/25 14:23:09;;;;;;;10.40;4.85;;;;;;;18.43;54.92;102701.69;4908210;29;20417;-92
2023/05/25 14:25:34;;;;;;;10.90;4.90;;;;;;;18.26;54.97;102704.75;4907499;29;20511;-92
2023/05/25 14:28:00;;;;;;;9.02;5.03;;;;;;;18.11;52.94;102715.66;4906950;29;20096;-91
2023/05/25 14:30:26;;;;;;;9.52;5.10;;;;;;;17.89;53.94;102702.19;4908984;29;20044;-92
2023/05/25 14:32:54;;;;;;;9.10;4.78;;;;;;;17.89;55.08;102717.06;4914463;29;20045;-93
2023/05/25 14:35:19;;;;;;;10.63;4.82;;;;;;;17.85;56.33;102713.66;4913259;29;20046;-93
2023/05/25 14:37:45;;;;;;;9.50;5.15;;;;;;;17.93;54.65;102714.34;4901962;29;20127;-93
2023/05/25 14:40:11;;;;;;;9.30;4.93;;;;;;;18.00;53.25;102710.69;4903784;29;20031;-92
2023/05/25 14:42:36;;;;;;;10.88;4.75;;;;;;;18.03;55.34;102718.47;4904308;29;20043;-93
2023/05/25 14:45:02;;;;;;;9.70;4.80;;;;;;;18.12;54.00;102704.25;4896813;29;20032;-91
2023/05/25 14:47:30;;;;;;;8.73;4.82;;;;;;;18.32;54.84;102708.97;4918262;29;20044;-91
2023/05/25 14:49:55;;;;;;;11.88;4.65;;;;;;;18.47;54.62;102703.34;4897027;29;20066;-92
2023/05/25 14:52:21;;;;;;;15.13;5.43;;;;;;;18.45;52.08;102699.88;4902889;29;20036;-91
2023/05/25 14:54:47;;;;;;;15.93;5.00;;;;;;;18.46;51.89;102696.34;4904653;29;20047;-92
2023/05/25 14:57:15;;;;;;;10.23;4.72;;;;;;;18.60;51.22;102696.88;4903694;29;20235;-91
2023/05/25 14:59:43;;;;;;;15.85;4.80;;;;;;;18.71;53.80;102692.16;4912262;29;20276;-92
2023/05/25 15:02:09;;;;;;;13.20;5.55;;;;;;;18.75;52.60;102683.31;4915404;29;20147;-91
2023/05/25 15:04:37;;;;;;;11.60;4.90;;;;;;;18.79;52.54;102689.34;4903506;29;20222;-91
2023/05/25 15:07:03;;;;;;;12.10;4.72;;;;;;;18.80;50.85;102699.81;4899492;29;20039;-91
2023/05/25 15:09:28;;;;;;;10.88;4.90;;;;;;;18.65;52.28;102696.75;4901159;29;20343;-92
2023/05/25 15:11:54;;;;;;;13.85;4.80;;;;;;;18.56;53.98;102684.72;4900545;29;20107;-92
2023/05/25 15:14:19;;;;;;;13.15;5.40;;;;;;;18.64;52.12;102697.63;4911274;29;20509;-91
2023/05/25 15:16:45;;;;;;;10.55;5.18;;;;;;;18.68;53.64;102699.28;4895264;29;20036;-91
2023/05/25 15:19:11;;;;;;;11.00;5.07;;;;;;;18.63;53.65;102702.03;4897844;29;20509;-92
2023/05/25 15:21:39;;;;;;;11.13;4.95;;;;;;;18.48;52.75;102699.81;4900953;29;21120;-93
2023/05/25 15:24:05;;;;;;;12.35;5.35;;;;;;;18.32;52.38;102706.34;4896220;29;20048;-91
2023/05/25 15:26:31;;;;;;;11.38;5.05;;;;;;;18.26;53.61;102710.00;4899058;29;20040;-92
2023/05/25 15:28:56;;;;;;;11.00;5.50;;;;;;;18.29;53.95;102701.16;4895129;29;20059;-91
2023/05/25 15:31:22;;;;;;;14.88;5.53;;;;;;;18.36;53.24;102689.59;4901252;29;20032;-91
2023/05/25 15:33:49;;;;;;;13.52;5.10;;;;;;;18.53;52.33;102697.91;4909515;29;20036;-91
2023/05/25 15:36:21;;;;;;;10.88;4.57;;;;;;;18.66;52.38;102696.69;4898849;29;20032;-92
2023/05/25 15:38:49;;;;;;;12.05;4.90;;;;;;;18.65;52.29;102684.47;4906529;29;20077;-92
2023/05/25 15:41:19;;;;;;;11.10;4.88;;;;;;;18.50;51.77;102690.09;4898918;29;20036;-92
2023/05/25 15:43:56;;;;;;;11.32;4.80;;;;;;;18.31;52.96;102686.25;4899358;29;20080;-92
2023/05/25 15:46:22;;;;;;;12.88;4.95;;;;;;;18.14;52.25;102692.81;4890325;29;20191;-91
2023/05/25 15:48:48;;;;;;;13.32;4.80;;;;;;;18.03;55.05;102691.34;4899633;29;20035;-91
2023/05/25 15:51:14;;;;;;;10.88;4.55;;;;;;;17.99;54.91;102689.72;4895320;29;20103;-91
2023/05/25 15:53:42;;;;;;;13.32;4.95;;;;;;;18.09;53.68;102696.44;4898500;29;20610;-91
2023/05/25 15:56:07;;;;;;;9.82;4.93;;;;;;;18.12;54.79;102684.13;4905153;29;20075;-91
2023/05/25 15:58:33;;;;;;;10.10;4.55;;;;;;;18.20;53.00;102691.78;4900156;29;20138;-91
2023/05/25 16:00:59;;;;;;;10.65;5.10;;;;;;;18.31;54.47;102696.75;4896334;29;20040;-91
2023/05/25 16:03:26;;;;;;;10.10;4.40;;;;;;;18.33;53.66;102701.06;4900466;29;20095;-91
2023/05/25 16:05:51;;;;;;;12.88;4.82;;;;;;;18.27;53.25;102703.00;4905197;29;20028;-90
2023/05/25 16:08:17;;;;;;;12.15;5.10;;;;;;;18.28;52.60;102699.47;4913139;29;20047;-91
2023/05/25 16:10:42;;;;;;;10.15;4.60;;;;;;;18.24;52.84;102692.56;4897349;29;20035;-91
2023/05/25 16:13:08;;;;;;;13.07;5.20;;;;;;;18.27;52.79;102692.50;4906999;29;20291;-91
2023/05/25 16:15:33;;;;;;;13.05;5.03;;;;;;;18.34;54.68;102689.69;4897103;29;20078;-90
2023/05/25 16:18:00;;;;;;;8.65;4.70;;;;;;;18.44;54.95;102680.63;4908594;29;20048;-90
2023/05/25 16:20:26;;;;;;;9.23;4.60;;;;;;;18.56;53.84;102689.13;4901027;29;20036;-91
2023/05/25 16:22:51;;;;;;;12.20;4.97;;;;;;;18.58;53.48;102679.41;4896373;29;20066;-91
2023/05/25 16:25:19;;;;;;;14.13;5.10;;;;;;;18.57;53.17;102688.19;4900019;29;21078;-90
2023/05/25 16:27:45;;;;;;;12.77;6.00;;;;;;;18.46;53.76;102686.72;4901238;29;20075;-90
2023/05/25 16:30:17;;;;;;;12.60;5.07;;;;;;;18.37;53.33;102679.06;4901580;29;20487;-90
2023/05/25 16:32:42;;;;;;;12.90;5.03;;;;;;;18.28;52.51;102679.34;4903876;29;20040;-90
2023/05/25 16:35:08;;;;;;;14.80;5.25;;;;;;;18.23;54.82;102683.81;4900398;29;20047;-90
2023/05/25 16:37:34;;;;;;;13.32;5.00;;;;;;;18.25;54.26;102683.78;4899599;29;20062;-90
2023/05/25 16:39:59;;;;;;;14.60;5.35;;;;;;;18.20;51.99;102678.66;4894932;29;20070;-90
2023/05/25 16:42:25;;;;;;;12.75;6.50;;;;;;;18.13;53.18;102677.97;4914778;29;20208;-90
2023/05/25 16:44:50;;;;;;;14.80;5.03;;;;;;;18.12;53.07;102683.25;4913273;29;20043;-90
2023/05/25 16:47:16;;;;;;;14.88;4.88;;;;;;;18.12;53.86;102684.13;4898515;29;20036;-90
2023/05/25 16:49:42;;;;;;;15.90;5.28;;;;;;;18.07;53.41;102677.28;4903562;29;20047;-90
2023/05/25 16:52:08;;;;;;;15.25;5.03;;;;;;;18.03;54.36;102678.22;4902776;29;20043;-91
2023/05/25 16:54:34;;;;;;;14.23;4.55;;;;;;;18.06;55.42;102675.53;4914551;29;20039;-91
2023/05/25 16:57:00;;;;;;;15.18;5.07;;;;;;;18.01;54.41;102673.03;4900164;29;20090;-91
2023/05/25 16:59:26;;;;;;;10.98;5.03;;;;;;;17.93;54.39;102668.88;4897773;29;20221;-90
2023/05/25 17:02:15;;;;;;;15.30;4.53;;;;;;;17.95;53.58;102683.66;4896784;29;20036;-90
2023/05/25 17:04:49;;;;;;;13.40;4.35;;;;;;;17.85;55.41;102679.56;4910270;29;20044;-90
2023/05/25 17:07:16;;;;;;;18.45;4.75;;;;;;;17.90;55.74;102687.31;4913622;29;20040;-90
2023/05/25 17:09:42;;;;;;;12.68;4.80;;;;;;;17.89;55.31;102677.72;4906687;29;20047;-91
2023/05/25 17:12:53;;;;;;;13.95;4.72;;;;;;;18.01;54.98;102685.31;4902780;29;20103;-90
2023/05/25 17:15:20;;;;;;;12.32;4.50;;;;;;;17.95;54.03;102665.28;4911228;29;20590;-91
2023/05/25 17:17:45;;;;;;;13.25;4.43;;;;;;;17.99;54.71;102666.09;4902693;29;20437;-90
2023/05/25 17:20:13;;;;;;;16.05;4.50;;;;;;;18.08;53.44;102676.38;4913648;29;20532;-91
2023/05/25 17:22:40;;;;;;;16.42;4.50;;;;;;;18.06;53.35;102670.28;4915131;29;20118;-90
2023/05/25 17:25:07;;;;;;;15.68;4.07;;;;;;;18.05;53.05;102679.91;4903280;29;20056;-91
2023/05/25 17:27:33;;;;;;;14.95;4.25;;;;;;;17.99;54.92;102669.59;4902917;29;20592;-90
2023/05/25 17:29:58;;;;;;;14.52;4.32;;;;;;;17.95;53.61;102673.16;4902470;29;20055;-91
2023/05/25 17:32:24;;;;;;;12.48;4.78;;;;;;;17.86;54.03;102667.31;4903323;29;20047;-90
2023/05/25 17:34:53;;;;;;;17.13;4.43;;;;;;;17.85;55.09;102674.31;4902027;29;20032;-90
2023/05/25 17:37:39;;;;;;;16.95;4.28;;;;;;;17.79;53.84;102670.97;4901005;29;20059;-90
2023/05/25 17:40:08;;;;;;;15.32;4.22;;;;;;;17.65;54.35;102671.31;4900003;29;20496;-89
2023/05/25 17:42:45;;;;;;;;;;;;;;;;;;;;;
2023/05/25 17:45:11;;;;;;;15.25;4.30;;;;;;;17.48;53.26;102678.66;4903589;29;20047;-90
2023/05/25 17:48:16;;;;;;;;;;;;;;;;;;;;;
2023/05/25 17:50:45;;;;;;;11.38;4.20;;;;;;;17.32;53.15;102675.56;4888891;29;20049;-91
2023/05/25 17:53:13;;;;;;;14.15;4.22;;;;;;;17.17;53.81;102663.66;4899419;29;20050;-90
2023/05/25 17:55:41;;;;;;;14.32;4.35;;;;;;;17.15;54.69;102668.03;4899418;29;20095;-90
2023/05/25 17:58:07;;;;;;;15.63;4.10;;;;;;;17.10;54.27;102667.28;4897363;29;20047;-89